Time;durP1;ratioP1;P1;durP2;ratioP2;P2;SDS_P1;SDS_P2;PMS_P1;PMS_P2;Temp;Humidity;BMP_temperature;BMP_pressure;BME280_temperature;BME280_humidity;BME280_pressure;Samples;Min_cycle;Max_cycle;Signal;HPM_P1;HPM_P2
2021/04/10 04:00:14;;;;;;;4.43;2.30;;;8.10;84.00;;;;;;6087126;23;20399;31
2021/04/10 04:02:39;;;;;;;5.73;2.20;;;8.00;84.40;;;;;;4984558;28;20495;-77
2021/04/10 04:05:06;;;;;;;5.53;2.80;;;8.00;84.20;;;;;;4961077;28;20464;-77
2021/04/10 04:07:32;;;;;;;4.67;2.23;;;8.00;84.30;;;;;;4974544;28;20592;-77
2021/04/10 04:09:57;;;;;;;10.37;3.83;;;7.80;85.20;;;;;;4973979;28;20483;-77
2021/04/10 04:12:23;;;;;;;8.30;3.20;;;7.70;85.40;;;;;;4975030;28;20199;-77
2021/04/10 04:14:48;;;;;;;3.93;2.30;;;7.60;85.10;;;;;;4975175;28;20810;-75
2021/04/10 04:17:14;;;;;;;4.60;2.37;;;7.80;83.90;;;;;;4972770;28;20206;-76
2021/04/10 04:19:39;;;;;;;4.70;2.80;;;7.90;83.90;;;;;;4974597;28;20257;-75
2021/04/10 04:22:05;;;;;;;8.90;3.10;;;7.60;86.60;;;;;;4957229;28;20205;-75
2021/04/10 04:24:30;;;;;;;4.03;2.60;;;7.00;89.70;;;;;;4974613;28;20221;-76
2021/04/10 04:26:57;;;;;;;5.13;2.43;;;6.70;89.00;;;;;;4962500;28;20182;-76
2021/04/10 04:29:23;;;;;;;3.57;2.43;;;6.60;90.30;;;;;;4956158;28;20301;-75
2021/04/10 04:31:48;;;;;;;3.60;2.30;;;6.40;91.80;;;;;;4974377;28;20520;-78
2021/04/10 04:34:14;;;;;;;3.57;2.23;;;6.30;92.20;;;;;;4974387;28;20217;-78
2021/04/10 04:36:39;;;;;;;4.00;1.80;;;6.10;93.80;;;;;;4974215;28;20209;-78
2021/04/10 04:39:05;;;;;;;3.77;2.70;;;5.80;94.80;;;;;;4973792;28;20205;-78
2021/04/10 04:41:31;;;;;;;3.73;2.23;;;5.70;95.50;;;;;;4956723;28;20209;-78
2021/04/10 04:43:56;;;;;;;4.57;2.70;;;5.50;96.30;;;;;;4956799;28;20418;-78
2021/04/10 04:46:22;;;;;;;5.17;2.27;;;5.50;96.30;;;;;;4974391;28;20261;-78
2021/04/10 04:48:47;;;;;;;3.00;1.90;;;5.40;96.30;;;;;;4976803;28;20237;-78
2021/04/10 04:51:13;;;;;;;5.50;2.23;;;5.30;96.30;;;;;;4998396;28;20265;-78
2021/04/10 04:53:39;;;;;;;6.30;2.43;;;5.20;96.30;;;;;;4981884;28;20170;-78
2021/04/10 04:56:04;;;;;;;9.27;2.70;;;5.20;96.30;;;;;;4975698;28;20248;-77
2021/04/10 04:58:30;;;;;;;6.30;2.67;;;5.20;96.30;;;;;;4959041;28;20373;-78
2021/04/10 05:00:55;;;;;;;5.37;3.00;;;5.10;96.30;;;;;;4974313;28;20218;-78
2021/04/10 05:03:21;;;;;;;5.47;2.13;;;5.10;96.30;;;;;;4972797;28;20182;-78
2021/04/10 05:05:46;;;;;;;5.60;2.50;;;5.00;96.30;;;;;;4956748;28;20189;-78
2021/04/10 05:08:12;;;;;;;8.23;2.30;;;5.20;96.30;;;;;;4973357;28;20257;-78
2021/04/10 05:10:38;;;;;;;9.27;2.70;;;5.80;96.30;;;;;;4973704;28;20744;-78
2021/04/10 05:13:03;;;;;;;6.97;3.23;;;5.90;96.30;;;;;;4973883;28;20181;-78
2021/04/10 05:15:29;;;;;;;6.57;3.13;;;5.80;96.30;;;;;;4973827;28;20588;-78
2021/04/10 05:17:54;;;;;;;3.43;2.30;;;6.00;96.30;;;;;;4973287;28;20206;-78
2021/04/10 05:20:20;;;;;;;4.73;2.53;;;5.80;96.30;;;;;;4956319;28;20301;-78
2021/04/10 05:22:55;;;;;;;6.13;2.40;;;5.60;96.30;;;;;;4956240;28;20668;-78
2021/04/10 05:25:22;;;;;;;4.93;3.17;;;5.60;96.30;;;;;;4973655;28;20166;-77
2021/04/10 05:27:48;;;;;;;7.07;2.70;;;5.70;96.30;;;;;;4955028;28;21179;-78
2021/04/10 05:30:15;;;;;;;4.83;2.37;;;5.80;96.30;;;;;;4979311;28;20413;-78
2021/04/10 05:32:40;;;;;;;2.40;2.20;;;5.80;96.30;;;;;;4956104;28;20842;-78
2021/04/10 05:35:06;;;;;;;4.10;2.47;;;5.80;96.30;;;;;;4972268;28;20505;-78
2021/04/10 05:37:32;;;;;;;5.47;2.40;;;5.70;96.30;;;;;;4972984;28;20317;-78
2021/04/10 05:39:57;;;;;;;5.40;2.07;;;5.70;96.30;;;;;;4973630;28;20450;-78
2021/04/10 05:42:23;;;;;;;7.00;3.03;;;5.80;96.30;;;;;;4973660;28;20200;-78
2021/04/10 05:44:48;;;;;;;4.73;2.50;;;5.80;96.30;;;;;;4979959;28;20174;-78
2021/04/10 05:47:14;;;;;;;3.20;2.20;;;5.80;96.30;;;;;;4979388;28;20175;-76
2021/04/10 05:49:39;;;;;;;2.87;2.30;;;5.80;96.30;;;;;;4979848;28;20701;-77
2021/04/10 05:52:05;;;;;;;7.47;3.33;;;5.90;96.30;;;;;;4978513;28;20197;-77
2021/04/10 05:54:31;;;;;;;6.63;3.20;;;5.90;96.30;;;;;;4979842;28;20170;-76
2021/04/10 05:56:56;;;;;;;5.33;3.30;;;5.80;96.30;;;;;;4978226;28;20480;-76
2021/04/10 05:59:22;;;;;;;9.07;3.13;;;5.70;96.30;;;;;;4979463;28;20174;-76
2021/04/10 06:01:47;;;;;;;3.93;2.70;;;5.60;96.30;;;;;;4979608;28;20217;-76
2021/04/10 06:04:13;;;;;;;7.10;3.20;;;5.50;96.30;;;;;;4979483;28;20185;-76
2021/04/10 06:06:38;;;;;;;4.73;2.67;;;5.50;96.30;;;;;;4962221;28;20177;-77
2021/04/10 06:09:04;;;;;;;6.43;3.20;;;5.50;96.30;;;;;;4977899;28;20205;-77
2021/04/10 06:11:30;;;;;;;5.60;3.03;;;5.50;96.30;;;;;;4979417;28;20197;-77
2021/04/10 06:13:55;;;;;;;4.00;3.20;;;5.50;96.30;;;;;;4979580;28;20429;-77
2021/04/10 06:16:21;;;;;;;3.90;2.67;;;5.40;96.30;;;;;;4979393;28;20202;-77
2021/04/10 06:18:46;;;;;;;2.93;2.63;;;5.40;96.30;;;;;;4978642;28;20170;-77
2021/04/10 06:21:12;;;;;;;7.33;3.37;;;5.20;96.30;;;;;;4993321;28;20197;-76
2021/04/10 06:23:37;;;;;;;6.97;3.33;;;5.10;96.30;;;;;;4975671;28;20177;-77
2021/04/10 06:26:03;;;;;;;3.90;2.43;;;4.90;96.30;;;;;;4998762;28;20584;-76
2021/04/10 06:28:28;;;;;;;6.30;2.93;;;4.90;96.30;;;;;;4988401;28;20174;-77
2021/04/10 06:30:54;;;;;;;4.50;3.00;;;5.00;96.30;;;;;;4970372;28;20222;-77
2021/04/10 06:33:22;;;;;;;6.20;3.67;;;5.10;96.30;;;;;;4994892;28;20606;-76
2021/04/10 06:35:47;;;;;;;4.50;2.83;;;5.30;96.30;;;;;;4979898;28;20634;-76
2021/04/10 06:38:13;;;;;;;5.30;4.17;;;5.50;96.30;;;;;;4998096;28;20416;-76
2021/04/10 06:40:39;;;;;;;4.20;2.90;;;5.60;96.30;;;;;;4979696;28;20221;-77
2021/04/10 06:43:05;;;;;;;7.63;3.60;;;5.80;96.30;;;;;;4979174;28;20186;-77
2021/04/10 06:45:30;;;;;;;6.40;2.80;;;5.90;96.30;;;;;;4979310;28;20488;-77
2021/04/10 06:47:59;;;;;;;5.83;2.97;;;6.10;96.30;;;;;;4961436;28;20182;-78
2021/04/10 06:50:25;;;;;;;7.57;3.50;;;6.20;96.30;;;;;;4961969;28;20813;-78
2021/04/10 06:52:53;;;;;;;6.37;3.47;;;6.20;96.30;;;;;;4962017;28;20441;-77
2021/04/10 06:55:19;;;;;;;5.20;3.10;;;6.30;96.30;;;;;;4974241;28;20204;-78
2021/04/10 06:58:03;;;;;;;3.37;2.70;;;6.50;96.30;;;;;;4974464;28;20449;-78
2021/04/10 07:00:30;;;;;;;6.70;3.70;;;6.70;96.30;;;;;;4958872;28;20532;-78
2021/04/10 07:02:58;;;;;;;5.60;3.30;;;6.80;96.30;;;;;;4976239;28;20402;-78
2021/04/10 07:05:23;;;;;;;6.27;3.40;;;6.80;96.30;;;;;;4976323;28;20413;-78
2021/04/10 07:07:50;;;;;;;14.63;3.50;;;6.70;96.30;;;;;;4975848;28;20776;-78
2021/04/10 07:10:16;;;;;;;3.67;3.07;;;6.70;96.30;;;;;;4958601;28;20178;-77
2021/04/10 07:12:42;;;;;;;5.97;3.47;;;6.60;96.30;;;;;;4992088;28;20439;-78
2021/04/10 07:15:11;;;;;;;8.40;3.80;;;6.50;96.30;;;;;;4994531;28;20174;-77
2021/04/10 07:17:37;;;;;;;6.20;3.10;;;6.50;96.30;;;;;;4975068;28;20541;-77
2021/04/10 07:20:29;;;;;;;4.77;3.30;;;6.40;96.30;;;;;;4974707;28;20500;-77
2021/04/10 07:23:09;;;;;;;7.43;4.13;;;6.50;96.30;;;;;;4975894;28;20186;-77
2021/04/10 07:25:37;;;;;;;12.90;4.43;;;6.50;96.30;;;;;;4975851;28;20398;-77
2021/04/10 07:28:26;;;;;;;9.87;3.40;;;6.50;96.30;;;;;;4975409;28;20492;-77
2021/04/10 07:31:00;;;;;;;7.57;4.33;;;6.50;96.30;;;;;;4975476;28;20430;-77
2021/04/10 07:33:27;;;;;;;4.70;3.77;;;6.60;96.30;;;;;;4974409;28;20413;-77
2021/04/10 07:35:53;;;;;;;4.83;3.37;;;6.60;96.30;;;;;;4975581;28;20452;-76
2021/04/10 07:38:30;;;;;;;4.87;3.33;;;6.60;96.30;;;;;;4975427;28;20389;-78
2021/04/10 07:40:57;;;;;;;7.00;3.50;;;6.70;96.30;;;;;;4975978;28;20429;-78
2021/04/10 07:43:30;;;;;;;9.63;4.23;;;6.70;96.30;;;;;;4976394;28;20410;-79
2021/04/10 07:46:14;;;;;;;12.03;5.63;;;6.40;96.30;;;;;;4959158;28;20406;-78
2021/04/10 07:49:02;;;;;;;7.20;4.50;;;6.40;96.30;;;;;;4978335;28;20413;-79
2021/04/10 07:51:28;;;;;;;6.50;4.20;;;6.40;96.30;;;;;;4976298;28;20432;-79
2021/04/10 07:53:55;;;;;;;5.40;3.80;;;6.40;96.30;;;;;;4978776;28;20402;-79
2021/04/10 07:56:21;;;;;;;9.20;4.73;;;6.50;96.30;;;;;;4976277;28;20453;-79
2021/04/10 07:58:47;;;;;;;7.80;4.27;;;6.50;96.30;;;;;;4974931;28;20469;-78
2021/04/10 08:01:14;;;;;;;5.83;4.07;;;6.70;96.30;;;;;;4975226;28;20201;-79
2021/04/10 08:03:47;;;;;;;9.23;4.63;;;6.80;96.30;;;;;;4975095;28;20402;-79
2021/04/10 08:06:14;;;;;;;6.20;4.43;;;6.90;96.30;;;;;;4973876;28;20727;-79
2021/04/10 08:09:00;;;;;;;7.50;4.40;;;7.00;96.30;;;;;;4974872;28;20413;-80
2021/04/10 08:11:41;;;;;;;5.17;3.80;;;7.10;96.30;;;;;;4974794;28;20434;-79
2021/04/10 08:14:14;;;;;;;7.00;4.33;;;7.40;96.30;;;;;;4975117;28;20451;-78
2021/04/10 08:16:41;;;;;;;6.83;4.23;;;7.10;96.30;;;;;;4973694;28;20556;-79
2021/04/10 08:19:07;;;;;;;5.90;4.20;;;7.10;96.30;;;;;;4973196;28;20445;-79
2021/04/10 08:21:32;;;;;;;6.73;4.57;;;7.20;96.30;;;;;;4973330;28;20441;-79
2021/04/10 08:23:59;;;;;;;6.63;4.07;;;7.30;96.30;;;;;;4974522;28;20580;-78
2021/04/10 08:26:24;;;;;;;8.17;4.90;;;7.30;96.30;;;;;;4974425;28;20642;-79
2021/04/10 08:28:51;;;;;;;8.03;4.70;;;7.30;96.30;;;;;;4974005;28;20501;-78
2021/04/10 08:31:17;;;;;;;5.03;3.97;;;7.60;96.30;;;;;;4979837;28;20194;-79
2021/04/10 08:33:43;;;;;;;16.20;4.80;;;7.80;96.30;;;;;;4973070;28;20424;-78
2021/04/10 08:36:10;;;;;;;5.80;4.60;;;8.00;96.30;;;;;;4973365;28;20457;-79
2021/04/10 08:38:38;;;;;;;9.37;4.70;;;7.90;96.30;;;;;;4973162;28;20185;-78
2021/04/10 08:41:05;;;;;;;8.20;4.80;;;7.60;96.30;;;;;;4984660;28;20433;-78
2021/04/10 08:43:35;;;;;;;4.60;3.93;;;7.70;96.30;;;;;;4993563;28;20445;-78
2021/04/10 08:46:03;;;;;;;6.87;4.53;;;8.10;96.30;;;;;;4977526;28;21007;-78
2021/04/10 08:48:28;;;;;;;8.50;4.70;;;8.60;96.30;;;;;;4993004;28;20945;-79
2021/04/10 08:50:58;;;;;;;8.13;4.77;;;9.00;96.30;;;;;;4993210;28;20432;-80
2021/04/10 08:53:29;;;;;;;9.70;4.90;;;9.10;96.30;;;;;;4990798;28;20182;-80
2021/04/10 08:55:56;;;;;;;5.00;4.40;;;8.80;96.30;;;;;;5003112;28;20400;-79
2021/04/10 08:58:28;;;;;;;6.70;4.03;;;8.70;96.30;;;;;;4988119;28;20417;-80
2021/04/10 09:00:56;;;;;;;7.20;4.03;;;9.00;96.30;;;;;;4987043;28;20953;-79
2021/04/10 09:03:44;;;;;;;6.63;4.87;;;9.00;96.30;;;;;;5008997;28;20471;-79
2021/04/10 09:06:10;;;;;;;8.63;4.57;;;9.30;96.30;;;;;;4991861;28;20839;-79
2021/04/10 09:08:35;;;;;;;6.00;4.60;;;9.60;96.30;;;;;;4997946;28;20420;-80
2021/04/10 09:11:03;;;;;;;6.30;4.30;;;9.70;96.30;;;;;;4976836;28;20209;-79
2021/04/10 09:13:44;;;;;;;6.33;4.37;;;9.80;96.30;;;;;;4973611;28;20177;-79
2021/04/10 09:16:29;;;;;;;6.00;4.07;;;9.70;96.30;;;;;;4982549;28;21196;-80
2021/04/10 09:18:58;;;;;;;4.97;4.37;;;9.70;96.30;;;;;;4999147;28;20408;-79
2021/04/10 09:21:37;;;;;;;7.40;4.73;;;9.60;96.30;;;;;;4964113;28;20441;-80
2021/04/10 09:24:24;;;;;;;7.60;4.83;;;9.30;96.30;;;;;;4993946;28;20479;-80
2021/04/10 09:27:04;;;;;;;6.90;5.03;;;9.70;96.30;;;;;;4990885;28;20519;-80
2021/04/10 09:29:41;;;;;;;6.37;4.00;;;9.90;96.30;;;;;;4984558;28;20413;-80
2021/04/10 09:32:07;;;;;;;7.83;4.13;;;10.20;96.30;;;;;;4969817;28;20437;-80
2021/04/10 09:34:49;;;;;;;7.53;5.03;;;10.40;96.30;;;;;;4963612;28;20437;-78
2021/04/10 09:37:21;;;;;;;13.30;4.87;;;10.60;96.30;;;;;;4988313;28;20483;-79
2021/04/10 09:40:05;;;;;;;6.20;5.60;;;10.80;96.30;;;;;;4996835;28;20942;-79
2021/04/10 09:42:34;;;;;;;11.10;4.23;;;10.20;96.30;;;;;;4989009;28;20967;-79
2021/04/10 09:45:16;;;;;;;5.40;4.03;;;10.50;96.30;;;;;;5001134;28;20413;-79
2021/04/10 09:48:00;;;;;;;6.97;4.00;;;10.40;96.30;;;;;;4983802;28;20963;-79
2021/04/10 09:50:31;;;;;;;6.37;3.97;;;10.50;96.30;;;;;;4989594;28;20417;-78
2021/04/10 09:52:59;;;;;;;7.00;3.87;;;11.20;96.30;;;;;;4993213;28;20413;-79
2021/04/10 09:55:26;;;;;;;4.53;3.30;;;11.70;96.30;;;;;;4990555;28;20910;-79
2021/04/10 09:58:02;;;;;;;6.57;4.20;;;11.80;96.30;;;;;;4998390;28;20470;-79
2021/04/10 10:00:38;;;;;;;5.30;4.10;;;11.50;96.30;;;;;;4990695;28;20409;-79
2021/04/10 10:03:06;;;;;;;6.43;3.83;;;11.70;96.30;;;;;;4972995;28;20772;-80
2021/04/10 10:05:33;;;;;;;10.90;4.53;;;11.80;96.30;;;;;;4968748;28;20421;-80
2021/04/10 10:08:04;;;;;;;5.50;3.90;;;11.40;96.30;;;;;;4985006;28;20447;-79
2021/04/10 10:10:31;;;;;;;8.00;3.60;;;11.00;96.30;;;;;;4974439;28;20462;-79
2021/04/10 10:13:07;;;;;;;4.27;3.03;;;11.10;96.30;;;;;;4973556;28;20419;-80
2021/04/10 10:15:34;;;;;;;5.30;3.30;;;10.80;96.30;;;;;;4974709;28;20791;-79
2021/04/10 10:18:16;;;;;;;6.93;3.53;;;10.50;96.30;;;;;;4978315;28;20495;-79
2021/04/10 10:21:00;;;;;;;6.23;3.30;;;10.20;96.30;;;;;;4972698;28;20937;-80
2021/04/10 10:23:52;;;;;;;4.30;2.97;;;10.10;96.30;;;;;;4954738;28;20445;-79
2021/04/10 10:26:22;;;;;;;4.70;2.77;;;9.90;96.30;;;;;;4955601;28;20796;-79
2021/04/10 10:29:08;;;;;;;8.23;2.97;;;9.70;96.30;;;;;;4973132;28;20897;-80
2021/04/10 10:31:47;;;;;;;9.90;3.60;;;9.60;96.30;;;;;;4958066;28;20425;-79
2021/04/10 10:34:21;;;;;;;10.53;3.10;;;9.40;96.30;;;;;;4970830;28;20414;-80
2021/04/10 10:36:49;;;;;;;5.80;3.23;;;9.40;96.30;;;;;;4957435;28;20464;-78
2021/04/10 10:39:31;;;;;;;7.90;3.60;;;9.30;96.30;;;;;;4975133;28;20641;-80
2021/04/10 10:41:59;;;;;;;8.97;3.63;;;9.40;96.30;;;;;;4991428;28;20440;-78
2021/04/10 10:44:25;;;;;;;7.67;3.70;;;9.60;96.30;;;;;;4995875;28;20408;-79
2021/04/10 10:47:04;;;;;;;7.60;4.17;;;9.40;96.30;;;;;;4994990;28;20417;-79
2021/04/10 10:49:30;;;;;;;6.87;4.83;;;9.30;96.30;;;;;;4977813;28;20173;-79
2021/04/10 10:51:56;;;;;;;8.73;5.00;;;9.10;96.30;;;;;;4981118;28;20449;-78
2021/04/10 10:54:38;;;;;;;7.83;4.80;;;9.00;96.30;;;;;;4973292;28;20193;-78
2021/04/10 10:57:14;;;;;;;6.70;5.40;;;9.00;96.30;;;;;;4961728;28;20579;-78
2021/04/10 10:59:40;;;;;;;9.60;6.70;;;8.90;96.30;;;;;;4988997;28;20405;-78
2021/04/10 11:02:10;;;;;;;8.53;7.00;;;8.90;96.30;;;;;;4977103;28;20504;-78
2021/04/10 11:04:38;;;;;;;7.07;6.37;;;8.90;96.30;;;;;;4975227;28;20509;-80
2021/04/10 11:07:06;;;;;;;8.63;6.80;;;8.60;96.30;;;;;;4957384;28;20453;-80
2021/04/10 11:09:38;;;;;;;8.43;6.40;;;8.30;96.30;;;;;;4976216;28;20761;-79
2021/04/10 11:12:10;;;;;;;8.70;6.80;;;8.30;96.30;;;;;;4974146;28;20448;-79
2021/04/10 11:14:41;;;;;;;8.07;6.70;;;8.30;96.30;;;;;;4974608;28;20429;-80
2021/04/10 11:17:08;;;;;;;14.40;7.70;;;8.20;96.30;;;;;;4973524;28;20536;-80
2021/04/10 11:19:36;;;;;;;8.63;7.13;;;8.20;96.30;;;;;;4975818;28;20750;-80
2021/04/10 11:22:04;;;;;;;10.70;7.23;;;8.20;96.30;;;;;;4957944;28;20430;-79
2021/04/10 11:24:48;;;;;;;12.90;7.23;;;8.30;96.30;;;;;;4991004;28;20413;-80
2021/04/10 11:27:15;;;;;;;9.63;7.00;;;8.30;96.30;;;;;;4994409;28;20393;-79
2021/04/10 11:29:48;;;;;;;11.13;7.53;;;8.30;96.30;;;;;;4976179;28;20425;-80
2021/04/10 11:32:19;;;;;;;9.83;7.93;;;8.20;96.30;;;;;;4976253;28;20488;-79
2021/04/10 11:34:48;;;;;;;11.30;8.30;;;8.20;96.30;;;;;;4974228;28;20420;-80
2021/04/10 11:37:18;;;;;;;13.40;7.40;;;8.20;96.30;;;;;;4957460;28;20465;-80
2021/04/10 11:40:02;;;;;;;13.63;8.37;;;8.00;96.30;;;;;;4971282;28;20496;-82
2021/04/10 11:42:33;;;;;;;10.03;6.60;;;8.10;96.30;;;;;;4954389;28;20442;-80
2021/04/10 11:45:24;;;;;;;11.60;7.23;;;8.30;96.30;;;;;;4958049;28;20476;-79
2021/04/10 11:48:20;;;;;;;9.17;6.70;;;8.40;96.30;;;;;;4980122;28;20431;-81
2021/04/10 11:50:50;;;;;;;9.00;6.67;;;8.50;96.30;;;;;;4958215;28;20973;-80
2021/04/10 11:53:38;;;;;;;8.17;7.37;;;8.60;96.30;;;;;;4975358;28;20497;-79
2021/04/10 11:56:22;;;;;;;7.87;6.07;;;8.40;96.30;;;;;;4975108;28;20410;-79
2021/04/10 11:59:08;;;;;;;8.10;5.73;;;8.40;96.30;;;;;;4950026;28;20402;-80
2021/04/10 12:01:34;;;;;;;8.67;6.80;;;8.60;96.30;;;;;;4957881;28;20488;-80
2021/04/10 12:04:02;;;;;;;10.17;7.40;;;8.70;96.30;;;;;;4971573;28;20417;-79
2021/04/10 12:06:36;;;;;;;9.23;5.90;;;8.80;96.30;;;;;;4976902;28;20494;-80
2021/04/10 12:09:02;;;;;;;12.17;5.77;;;9.00;96.30;;;;;;4976143;28;20452;-80
2021/04/10 12:11:27;;;;;;;8.77;6.10;;;9.00;96.30;;;;;;4993012;28;20531;-80
2021/04/10 12:13:53;;;;;;;11.50;6.47;;;9.00;96.30;;;;;;4994110;28;20181;-80
2021/04/10 12:16:18;;;;;;;15.50;6.30;;;9.40;96.30;;;;;;4992363;28;20568;-79
2021/04/10 12:18:44;;;;;;;9.10;5.77;;;9.70;96.30;;;;;;4994378;28;20261;-80
2021/04/10 12:21:09;;;;;;;7.93;5.20;;;10.00;96.30;;;;;;4989483;28;20689;-80
2021/04/10 12:23:35;;;;;;;7.80;4.77;;;10.10;96.30;;;;;;4992655;28;20181;-79
2021/04/10 12:26:02;;;;;;;8.80;5.70;;;10.00;96.30;;;;;;5034057;23;20184;-76
2021/04/10 12:28:29;;;;;;;5.53;5.03;;;9.90;96.30;;;;;;4959177;28;20210;-74
2021/04/10 12:30:55;;;;;;;10.60;6.10;;;9.60;96.30;;;;;;4972541;28;20414;-73
2021/04/10 12:33:21;;;;;;;8.20;6.30;;;9.50;96.30;;;;;;4972651;28;20476;-73
2021/04/10 12:35:46;;;;;;;8.17;5.83;;;9.50;96.30;;;;;;4988870;28;20497;-74
2021/04/10 12:38:12;;;;;;;10.00;5.53;;;9.60;96.30;;;;;;4944641;28;20477;-74
2021/04/10 12:40:37;;;;;;;7.10;4.90;;;9.90;96.30;;;;;;4946284;28;20207;-73
2021/04/10 12:43:03;;;;;;;6.87;5.13;;;10.10;96.30;;;;;;4946461;28;20254;-73
2021/04/10 12:45:29;;;;;;;6.07;5.10;;;10.30;96.30;;;;;;4945171;28;20175;-74
2021/04/10 12:47:55;;;;;;;8.37;6.13;;;10.30;96.30;;;;;;4944712;29;20262;-74
2021/04/10 12:50:24;;;;;;;9.73;5.47;;;10.40;96.30;;;;;;4941271;29;20899;-74
2021/04/10 12:52:50;;;;;;;6.60;5.20;;;10.60;96.30;;;;;;4951768;28;20669;-73
2021/04/10 12:55:16;;;;;;;11.90;5.50;;;10.80;96.30;;;;;;4954368;28;20407;-73
2021/04/10 12:57:43;;;;;;;10.33;5.40;;;10.70;96.30;;;;;;4937342;28;21045;-73
2021/04/10 13:00:11;;;;;;;7.90;6.37;;;10.80;96.30;;;;;;4935378;29;20419;-75
2021/04/10 13:02:36;;;;;;;12.43;6.23;;;10.70;96.30;;;;;;4970222;28;20425;-74
2021/04/10 13:05:03;;;;;;;7.87;5.20;;;10.30;96.30;;;;;;4972484;28;20797;-73
2021/04/10 13:07:29;;;;;;;5.87;4.97;;;10.20;96.30;;;;;;4971526;28;20670;-73
2021/04/10 13:09:54;;;;;;;7.90;5.00;;;10.20;96.30;;;;;;4970502;28;20416;-73
2021/04/10 13:12:20;;;;;;;6.33;5.10;;;10.10;96.30;;;;;;4973448;28;20170;-73
2021/04/10 13:14:46;;;;;;;5.90;5.30;;;10.10;96.30;;;;;;4966917;28;20183;-73
2021/04/10 13:17:12;;;;;;;7.10;4.87;;;9.90;96.30;;;;;;4945116;29;20203;-72
2021/04/10 13:19:38;;;;;;;6.63;5.90;;;10.00;96.30;;;;;;4945724;29;20171;-73
2021/04/10 13:22:04;;;;;;;9.57;5.83;;;10.10;96.30;;;;;;4945993;29;20437;-74
2021/04/10 13:24:30;;;;;;;7.23;6.40;;;9.80;96.30;;;;;;4943824;28;20492;-72
2021/04/10 13:26:56;;;;;;;7.50;5.07;;;9.80;96.30;;;;;;4965062;28;21005;-73
2021/04/10 13:29:22;;;;;;;6.87;5.63;;;9.90;96.30;;;;;;4964441;28;20192;-74
2021/04/10 13:31:51;;;;;;;8.60;5.30;;;9.90;96.30;;;;;;4962203;28;20197;-73
2021/04/10 13:34:18;;;;;;;7.97;5.47;;;10.00;96.30;;;;;;4972759;28;20472;-73
2021/04/10 13:36:44;;;;;;;8.60;5.70;;;10.10;96.30;;;;;;4945719;28;20467;-73
2021/04/10 13:39:10;;;;;;;8.30;5.80;;;10.10;96.30;;;;;;4950501;28;20418;-72
2021/04/10 13:41:37;;;;;;;8.37;5.73;;;9.70;96.30;;;;;;4949879;28;20279;-73
2021/04/10 13:44:04;;;;;;;5.60;4.80;;;9.60;96.30;;;;;;4934721;28;20447;-73
2021/04/10 13:46:31;;;;;;;15.23;5.63;;;9.60;96.30;;;;;;4941863;28;20522;-72
2021/04/10 13:48:57;;;;;;;7.03;5.43;;;9.70;96.30;;;;;;4946063;28;20418;-74
2021/04/10 13:51:22;;;;;;;7.80;5.20;;;9.70;96.30;;;;;;4949722;29;20427;-73
2021/04/10 13:53:49;;;;;;;8.20;6.27;;;9.50;96.30;;;;;;4941063;29;20211;-72
2021/04/10 13:56:17;;;;;;;7.93;6.20;;;9.50;96.30;;;;;;4945635;29;20851;-72
2021/04/10 13:58:43;;;;;;;8.30;5.07;;;9.40;96.30;;;;;;4938138;28;20451;-73
2021/04/10 14:01:09;;;;;;;17.73;6.90;;;9.40;96.30;;;;;;4945740;28;20492;-72
2021/04/10 14:03:34;;;;;;;11.23;6.20;;;9.50;96.30;;;;;;4972660;28;21002;-72
2021/04/10 14:06:00;;;;;;;11.23;6.33;;;9.50;96.30;;;;;;4975995;28;20274;-72
2021/04/10 14:08:26;;;;;;;12.33;5.90;;;9.50;96.30;;;;;;4973955;28;20177;-73
2021/04/10 14:10:53;;;;;;;10.77;5.80;;;9.30;96.30;;;;;;4975850;28;20240;-72
2021/04/10 14:13:19;;;;;;;16.70;7.03;;;9.30;96.30;;;;;;4972375;28;20409;-72
2021/04/10 14:15:45;;;;;;;10.87;6.77;;;9.30;96.30;;;;;;4940971;28;20453;-74
2021/04/10 14:18:12;;;;;;;8.80;7.10;;;9.30;96.30;;;;;;4944838;28;20459;-72
2021/04/10 14:20:40;;;;;;;8.80;6.90;;;9.30;96.30;;;;;;4937020;29;20522;-72
2021/04/10 14:23:06;;;;;;;9.73;6.77;;;9.30;96.30;;;;;;4937907;29;20911;-74
2021/04/10 14:25:34;;;;;;;9.93;5.60;;;9.30;96.30;;;;;;4937890;29;20419;-72
2021/04/10 14:28:00;;;;;;;9.90;6.90;;;9.30;96.30;;;;;;4936840;29;20447;-73
2021/04/10 14:30:29;;;;;;;12.27;8.10;;;9.20;96.30;;;;;;4937609;29;20567;-72
2021/04/10 14:32:56;;;;;;;9.20;7.10;;;9.20;96.30;;;;;;4937536;29;20188;-72
2021/04/10 14:35:28;;;;;;;9.67;6.47;;;9.00;96.30;;;;;;4937653;29;20418;-72
2021/04/10 14:37:53;;;;;;;11.17;7.00;;;8.90;96.30;;;;;;4936641;29;20539;-72
2021/04/10 14:40:19;;;;;;;14.67;7.60;;;9.00;96.30;;;;;;4937239;29;20494;-72
2021/04/10 14:42:45;;;;;;;8.60;7.70;;;9.00;96.30;;;;;;4967423;28;20186;-72
2021/04/10 14:45:12;;;;;;;14.90;7.87;;;9.00;96.30;;;;;;4940219;29;20282;-72
2021/04/10 14:47:37;;;;;;;10.60;8.47;;;8.90;96.30;;;;;;4935425;29;20447;-71
2021/04/10 14:50:08;;;;;;;10.23;7.90;;;8.90;96.30;;;;;;4939906;28;20438;-73
2021/04/10 14:52:34;;;;;;;15.00;8.10;;;8.90;96.30;;;;;;4958091;28;20187;-71
2021/04/10 14:55:01;;;;;;;11.37;8.63;;;8.90;96.30;;;;;;4939228;28;20435;-71
2021/04/10 14:57:26;;;;;;;15.83;8.23;;;8.80;96.30;;;;;;4936430;29;20207;-72
2021/04/10 14:59:53;;;;;;;14.17;8.53;;;8.70;96.30;;;;;;4938689;29;21078;-72
2021/04/10 15:02:18;;;;;;;10.57;8.57;;;8.70;96.30;;;;;;4939158;29;20250;-71
2021/04/10 15:04:44;;;;;;;13.80;9.53;;;8.70;96.30;;;;;;4939037;29;20506;-72
2021/04/10 15:07:09;;;;;;;13.07;10.13;;;8.70;96.30;;;;;;4937947;29;20205;-72
2021/04/10 15:09:35;;;;;;;18.60;12.77;;;8.70;96.30;;;;;;4938912;29;20180;-73
2021/04/10 15:12:00;;;;;;;16.23;8.73;;;8.70;96.30;;;;;;4937200;29;20231;-72
2021/04/10 15:14:26;;;;;;;12.40;9.40;;;8.60;96.30;;;;;;4936888;29;20198;-72
2021/04/10 15:16:51;;;;;;;16.60;12.70;;;8.60;96.30;;;;;;4935173;29;20642;-72
2021/04/10 15:19:17;;;;;;;16.30;10.97;;;8.60;96.30;;;;;;4936422;29;20648;-72
2021/04/10 15:21:43;;;;;;;14.60;9.83;;;8.70;96.30;;;;;;4936993;29;20176;-72
2021/04/10 15:24:10;;;;;;;20.13;10.20;;;8.80;96.30;;;;;;4936560;29;20243;-72
2021/04/10 15:26:37;;;;;;;10.73;8.80;;;8.70;96.30;;;;;;4936361;29;20454;-72
2021/04/10 15:29:05;;;;;;;16.87;8.70;;;8.80;96.30;;;;;;4951321;28;20426;-71
2021/04/10 15:31:47;;;;;;;9.80;8.03;;;8.90;96.30;;;;;;4951397;29;20435;-72
2021/04/10 15:34:14;;;;;;;20.30;8.60;;;9.00;96.30;;;;;;4945488;29;20811;-72
2021/04/10 15:36:39;;;;;;;10.47;7.93;;;9.00;96.30;;;;;;4945007;29;20466;-72
2021/04/10 15:39:06;;;;;;;9.23;7.90;;;9.00;96.30;;;;;;4944054;29;20903;-72
2021/04/10 15:41:31;;;;;;;13.60;7.90;;;9.10;96.30;;;;;;4943957;29;20190;-73
2021/04/10 15:43:57;;;;;;;11.70;7.60;;;9.10;96.30;;;;;;4944525;28;20792;-74
2021/04/10 15:46:23;;;;;;;13.63;8.40;;;9.00;96.30;;;;;;4949937;28;20195;-74
2021/04/10 15:48:49;;;;;;;9.70;7.10;;;8.90;96.30;;;;;;4947646;29;20537;-73
2021/04/10 15:51:15;;;;;;;9.30;7.40;;;8.90;96.30;;;;;;4942478;29;20715;-73
2021/04/10 15:53:41;;;;;;;16.67;10.47;;;9.00;96.30;;;;;;4942006;29;20178;-76
2021/04/10 15:56:07;;;;;;;17.50;7.50;;;9.10;96.30;;;;;;4941641;29;20415;-72
2021/04/10 15:58:33;;;;;;;14.80;8.60;;;9.10;96.30;;;;;;4942117;28;20175;-75
2021/04/10 16:01:01;;;;;;;9.33;7.87;;;9.00;96.30;;;;;;4943489;29;20498;-75
2021/04/10 16:03:27;;;;;;;11.53;7.90;;;9.00;96.30;;;;;;4941728;28;20471;-76
2021/04/10 16:05:53;;;;;;;8.70;7.37;;;9.00;96.30;;;;;;4945224;28;20419;-76
2021/04/10 16:08:19;;;;;;;11.47;7.93;;;8.90;96.30;;;;;;4937057;28;20455;-73
2021/04/10 16:10:45;;;;;;;13.00;7.80;;;8.90;96.30;;;;;;4942049;28;20179;-73
2021/04/10 16:13:11;;;;;;;8.50;6.90;;;9.00;96.30;;;;;;4942452;29;20581;-74
2021/04/10 16:15:37;;;;;;;9.33;6.90;;;9.00;96.30;;;;;;4945978;28;20429;-74
2021/04/10 16:18:03;;;;;;;13.60;8.50;;;9.10;96.30;;;;;;4937137;28;20200;-74
2021/04/10 16:20:29;;;;;;;13.23;8.27;;;9.20;96.30;;;;;;4942112;29;20164;-75
2021/04/10 16:22:54;;;;;;;15.17;7.10;;;9.20;96.30;;;;;;4949121;28;20447;-76
2021/04/10 16:25:21;;;;;;;13.40;8.87;;;9.30;96.30;;;;;;4944879;28;20183;-76
2021/04/10 16:27:48;;;;;;;9.63;8.00;;;9.30;96.30;;;;;;4942379;28;20210;-75
2021/04/10 16:30:15;;;;;;;12.03;8.93;;;9.40;96.30;;;;;;4941621;28;20455;-76
2021/04/10 16:32:41;;;;;;;11.60;7.00;;;9.40;96.30;;;;;;4942111;28;20440;-76
2021/04/10 16:35:07;;;;;;;19.40;11.10;;;9.40;96.30;;;;;;4946426;29;20426;-75
2021/04/10 16:37:33;;;;;;;7.43;6.63;;;9.40;96.30;;;;;;4944257;28;20199;-75
2021/04/10 16:39:59;;;;;;;7.23;6.00;;;9.30;96.30;;;;;;4946104;28;20430;-75
2021/04/10 16:42:25;;;;;;;8.20;5.90;;;9.30;96.30;;;;;;4938164;29;20411;-75
2021/04/10 16:44:50;;;;;;;13.23;6.23;;;9.30;96.30;;;;;;4943345;29;20547;-76
2021/04/10 16:47:16;;;;;;;9.27;6.30;;;9.10;96.30;;;;;;4937531;29;20230;-74
2021/04/10 16:49:43;;;;;;;7.30;6.13;;;9.10;96.30;;;;;;4947208;28;20179;-74
2021/04/10 16:52:09;;;;;;;9.13;6.60;;;9.10;96.30;;;;;;4939906;29;20171;-75
2021/04/10 16:54:34;;;;;;;8.57;6.93;;;9.00;96.30;;;;;;4941526;29;20966;-73
2021/04/10 16:57:00;;;;;;;8.20;6.60;;;9.00;96.30;;;;;;4944186;29;20753;-73
2021/04/10 16:59:27;;;;;;;12.57;7.50;;;9.00;96.30;;;;;;4942964;29;20267;-74